Thorne Bay, Alaska
Current Conditions -  °F | °C
As of 10:53 PM on Wednesday 17 Dec 2014 (Local Time) from PAKW Reporting Station
Broken Clouds Broken Clouds  
Wind Chill: 36°   Ceiling: 4100
Heat Index: 41°   Visibility: 10mi
Dew Point: 33°   Wind: 7mph
Humidity: 73%   Direction: 60°ENE
Pressure: 29.58"   Gusts: NA
Location:  55.69°N, 132.52°W
Report Text: PAKW 180753Z AUTO 06006KT 10SM FEW034 BKN041 BKN055 05/01 A2958 RMK AO2 SLP017 T00500006 TSNO
Loading
Personal Weather Stations






























Interactive Weather Map New forecast layout! Learn more

10-Day Weather Forecast

Advertisements
Track Severe Weather on mobile